TimeEST,TemperatureF,Dew PointF,Humidity,Sea Level PressureIn,VisibilityMPH,Wind Direction,Wind SpeedMPH,Gust SpeedMPH,PrecipitationIn,Events,Conditions,WindDirDegrees,DateUTC
12:15 AM,28.4,24.8,86,30.33,10.0,Calm,Calm,-,N/A,,Clear,0,2013-02-10 05:15:00
12:35 AM,30.2,24.8,80,30.33,10.0,Calm,Calm,-,N/A,,Clear,0,2013-02-10 05:35:00
12:55 AM,28.4,24.8,86,30.33,10.0,Calm,Calm,-,N/A,,Clear,0,2013-02-10 05:55:00
1:15 AM,30.2,26.6,86,30.33,10.0,Calm,Calm,-,N/A,,Clear,0,2013-02-10 06:15:00
1:35 AM,28.4,26.6,93,30.34,10.0,Calm,Calm,-,N/A,,Clear,0,2013-02-10 06:35:00
1:55 AM,30.2,26.6,86,30.34,10.0,Calm,Calm,-,N/A,,Clear,0,2013-02-10 06:55:00
2:15 AM,30.2,26.6,86,30.34,10.0,Calm,Calm,-,N/A,,Clear,0,2013-02-10 07:15:00
2:35 AM,30.2,26.6,86,30.35,10.0,Calm,Calm,-,N/A,,Clear,0,2013-02-10 07:35:00
2:55 AM,30.2,26.6,86,30.35,10.0,Calm,Calm,-,N/A,,Clear,0,2013-02-10 07:55:00
3:15 AM,30.2,26.6,86,30.35,10.0,Calm,Calm,-,N/A,,Clear,0,2013-02-10 08:15:00
3:35 AM,30.2,26.6,86,30.35,10.0,Calm,Calm,-,N/A,,Clear,0,2013-02-10 08:35:00
3:55 AM,30.2,26.6,86,30.35,10.0,Calm,Calm,-,N/A,,Clear,0,2013-02-10 08:55:00
4:15 AM,32.0,26.6,80,30.35,10.0,Calm,Calm,-,N/A,,Clear,0,2013-02-10 09:15:00
4:35 AM,30.2,26.6,86,30.35,10.0,Calm,Calm,-,N/A,,Clear,0,2013-02-10 09:35:00
4:55 AM,32.0,28.4,87,30.35,10.0,Calm,Calm,-,N/A,,Clear,0,2013-02-10 09:55:00
5:15 AM,32.0,28.4,87,30.36,10.0,Calm,Calm,-,N/A,,Clear,0,2013-02-10 10:15:00
5:35 AM,32.0,28.4,87,30.36,10.0,Calm,Calm,-,N/A,,Clear,0,2013-02-10 10:35:00
5:55 AM,32.0,28.4,87,30.36,10.0,Calm,Calm,-,N/A,,Clear,0,2013-02-10 10:55:00
6:15 AM,32.0,28.4,87,30.37,10.0,Calm,Calm,-,N/A,,Clear,0,2013-02-10 11:15:00
6:35 AM,32.0,28.4,87,30.38,10.0,Calm,Calm,-,N/A,,Clear,0,2013-02-10 11:35:00
6:55 AM,32.0,28.4,87,30.40,10.0,Calm,Calm,-,N/A,,Clear,0,2013-02-10 11:55:00
7:15 AM,32.0,30.2,93,30.41,10.0,Calm,Calm,-,N/A,,Clear,0,2013-02-10 12:15:00
7:35 AM,32.0,30.2,93,30.42,10.0,Calm,Calm,-,N/A,,Clear,0,2013-02-10 12:35:00
7:55 AM,32.0,30.2,93,30.42,10.0,Calm,Calm,-,N/A,,Clear,0,2013-02-10 12:55:00
8:15 AM,32.0,30.2,93,30.42,10.0,Calm,Calm,-,N/A,,Clear,0,2013-02-10 13:15:00
8:35 AM,32.0,30.2,93,30.41,10.0,Calm,Calm,-,N/A,,Clear,0,2013-02-10 13:35:00
8:55 AM,37.4,28.4,70,30.41,10.0,Calm,Calm,-,N/A,,Clear,0,2013-02-10 13:55:00
9:15 AM,39.2,26.6,61,30.42,10.0,Calm,Calm,-,N/A,,Clear,0,2013-02-10 14:15:00
9:35 AM,42.8,26.6,53,30.42,10.0,Calm,Calm,-,N/A,,Clear,0,2013-02-10 14:35:00
9:55 AM,42.8,23.0,46,30.42,10.0,SW,3.5,-,N/A,,Clear,220,2013-02-10 14:55:00
10:15 AM,46.4,21.2,37,30.43,10.0,NE,4.6,-,N/A,,Clear,50,2013-02-10 15:15:00
10:35 AM,46.4,21.2,37,30.42,10.0,South,4.6,-,N/A,,Clear,180,2013-02-10 15:35:00
10:55 AM,50.0,19.4,30,30.42,10.0,SSE,6.9,-,N/A,,Clear,150,2013-02-10 15:55:00
11:15 AM,51.8,21.2,30,30.42,10.0,SE,5.8,-,N/A,,Clear,140,2013-02-10 16:15:00
11:35 AM,51.8,21.2,30,30.40,10.0,South,5.8,-,N/A,,Clear,190,2013-02-10 16:35:00
11:55 AM,51.8,19.4,28,30.39,10.0,SSE,6.9,-,N/A,,Clear,160,2013-02-10 16:55:00
12:15 PM,51.8,19.4,28,30.38,10.0,South,4.6,-,N/A,,Clear,180,2013-02-10 17:15:00
12:35 PM,51.8,15.8,24,30.36,10.0,SSE,5.8,-,N/A,,Clear,160,2013-02-10 17:35:00
12:55 PM,51.8,15.8,24,30.36,10.0,South,8.1,-,N/A,,Clear,180,2013-02-10 17:55:00
1:15 PM,51.8,17.6,26,30.35,10.0,SSW,4.6,-,N/A,,Clear,200,2013-02-10 18:15:00
1:35 PM,53.6,17.6,24,30.33,10.0,SSE,5.8,-,N/A,,Clear,160,2013-02-10 18:35:00
1:55 PM,53.6,17.6,24,30.30,10.0,WSW,3.5,-,N/A,,Clear,250,2013-02-10 18:55:00
2:15 PM,55.4,17.6,23,30.29,10.0,SSE,6.9,-,N/A,,Clear,160,2013-02-10 19:15:00
2:35 PM,55.4,17.6,23,30.28,10.0,East,8.1,-,N/A,,Clear,100,2013-02-10 19:35:00
2:55 PM,55.4,19.4,25,30.28,10.0,SE,6.9,-,N/A,,Scattered Clouds,140,2013-02-10 19:55:00
3:15 PM,55.4,17.6,23,30.28,10.0,SSW,5.8,-,N/A,,Scattered Clouds,200,2013-02-10 20:15:00
3:35 PM,55.4,19.4,25,30.28,10.0,WSW,3.5,-,N/A,,Scattered Clouds,240,2013-02-10 20:35:00
3:55 PM,53.6,19.4,26,30.27,10.0,SW,3.5,-,N/A,,Scattered Clouds,220,2013-02-10 20:55:00
4:15 PM,53.6,21.2,28,30.25,10.0,South,4.6,-,N/A,,Clear,170,2013-02-10 21:15:00
4:35 PM,53.6,21.2,28,30.26,10.0,SE,5.8,-,N/A,,Clear,130,2013-02-10 21:35:00
4:55 PM,53.6,21.2,28,30.25,10.0,South,3.5,-,N/A,,Clear,190,2013-02-10 21:55:00
5:15 PM,53.6,21.2,28,30.25,10.0,Calm,Calm,-,N/A,,Mostly Cloudy,0,2013-02-10 22:15:00
5:35 PM,51.8,23.0,33,30.24,10.0,Calm,Calm,-,N/A,,Overcast,0,2013-02-10 22:35:00
5:55 PM,51.8,23.0,33,30.24,10.0,Calm,Calm,-,N/A,,Overcast,0,2013-02-10 22:55:00
6:15 PM,51.8,23.0,33,30.24,10.0,Calm,Calm,-,N/A,,Mostly Cloudy,0,2013-02-10 23:15:00
6:35 PM,51.8,23.0,33,30.24,10.0,Calm,Calm,-,N/A,,Mostly Cloudy,0,2013-02-10 23:35:00
6:55 PM,50.0,24.8,37,30.24,10.0,Calm,Calm,-,N/A,,Overcast,0,2013-02-10 23:55:00
7:15 PM,50.0,24.8,37,30.24,10.0,Calm,Calm,-,N/A,,Overcast,0,2013-02-11 00:15:00
7:35 PM,50.0,26.6,40,30.24,10.0,Calm,Calm,-,N/A,,Overcast,0,2013-02-11 00:35:00
7:55 PM,50.0,30.2,47,30.24,10.0,Calm,Calm,-,N/A,Rain,Light Rain,0,2013-02-11 00:55:00
8:15 PM,44.6,37.4,76,30.25,7.0,Calm,Calm,-,0.01,Rain,Rain,0,2013-02-11 01:15:00
8:35 PM,42.8,41.0,93,30.27,10.0,Calm,Calm,-,0.04,Rain,Rain,0,2013-02-11 01:35:00
8:55 PM,42.8,41.0,93,30.28,7.0,Calm,Calm,-,0.07,Rain,Rain,0,2013-02-11 01:55:00
9:15 PM,42.8,41.0,93,30.28,10.0,Calm,Calm,-,0.01,Rain,Rain,0,2013-02-11 02:15:00
9:35 PM,42.8,41.0,93,30.26,10.0,Calm,Calm,-,0.02,Rain,Light Rain,0,2013-02-11 02:35:00
9:55 PM,42.8,41.0,93,30.25,10.0,Calm,Calm,-,0.03,,Drizzle,0,2013-02-11 02:55:00
10:15 PM,42.8,41.0,93,30.24,10.0,Calm,Calm,-,N/A,,Light Drizzle,0,2013-02-11 03:15:00
10:35 PM,42.8,41.0,93,30.22,10.0,Calm,Calm,-,N/A,,Overcast,0,2013-02-11 03:35:00
10:55 PM,42.8,41.0,93,30.19,10.0,Calm,Calm,-,N/A,,Overcast,0,2013-02-11 03:55:00
11:15 PM,42.8,41.0,93,30.18,10.0,Calm,Calm,-,N/A,,Overcast,0,2013-02-11 04:15:00
11:35 PM,42.8,41.0,93,30.18,7.0,Calm,Calm,-,N/A,,Light Drizzle,0,2013-02-11 04:35:00
11:55 PM,42.8,42.8,100,30.17,7.0,Calm,Calm,-,N/A,,Drizzle,0,2013-02-11 04:55:00